createdAt,value
2022-09-09T00:00:44.435Z,13.57
2022-09-09T00:01:44.437Z,13.71
2022-09-09T00:02:44.514Z,13.67
2022-09-09T00:03:44.558Z,13.63
2022-09-09T00:04:44.409Z,13.62
2022-09-09T00:05:44.417Z,13.63
2022-09-09T00:06:44.394Z,13.60
2022-09-09T00:07:44.390Z,13.57
2022-09-09T00:08:44.387Z,13.62
2022-09-09T00:09:44.375Z,13.52
2022-09-09T00:10:44.366Z,13.63
2022-09-09T00:11:44.355Z,13.59
2022-09-09T00:12:44.350Z,13.54
2022-09-09T00:13:44.333Z,13.59
2022-09-09T00:14:44.326Z,13.49
2022-09-09T00:15:44.382Z,13.49
2022-09-09T00:16:44.332Z,13.47
2022-09-09T00:17:44.318Z,13.53
2022-09-09T00:18:44.302Z,13.53
2022-09-09T00:19:44.287Z,13.49
2022-09-09T00:20:44.277Z,13.47
2022-09-09T00:21:44.270Z,13.38
2022-09-09T00:22:44.260Z,13.31
2022-09-09T00:23:44.261Z,13.49
2022-09-09T00:24:44.240Z,13.41
2022-09-09T00:25:44.262Z,13.52
2022-09-09T00:26:44.234Z,13.44
2022-09-09T00:27:44.228Z,13.49
2022-09-09T00:28:44.220Z,13.38
2022-09-09T00:29:44.207Z,13.44
2022-09-09T00:31:35.720Z,13.49
2022-09-09T00:32:35.718Z,13.41
2022-09-09T00:33:35.718Z,13.41
2022-09-09T00:34:35.704Z,13.42
2022-09-09T00:35:35.701Z,13.35
2022-09-09T00:36:35.683Z,13.42
2022-09-09T00:37:35.680Z,13.31
2022-09-09T00:38:35.775Z,13.46
2022-09-09T00:39:36.797Z,13.44
2022-09-09T00:40:36.752Z,13.42
2022-09-09T00:41:36.747Z,13.42
2022-09-09T00:42:36.730Z,13.49
2022-09-09T00:43:36.722Z,13.53
2022-09-09T00:44:36.715Z,13.46
2022-09-09T00:45:36.709Z,13.50
2022-09-09T00:46:36.785Z,13.53
2022-09-09T00:47:36.692Z,13.53
2022-09-09T00:48:36.685Z,13.59
2022-09-09T00:49:36.689Z,13.62
2022-09-09T00:50:36.665Z,13.59
2022-09-09T00:51:36.672Z,13.63
2022-09-09T00:52:36.654Z,13.70
2022-09-09T00:53:36.646Z,13.77
2022-09-09T00:54:36.643Z,13.74
2022-09-09T00:55:36.634Z,13.72
2022-09-09T00:56:36.627Z,13.75
2022-09-09T00:57:36.617Z,13.78
2022-09-09T00:58:36.754Z,13.68
2022-09-09T00:59:36.606Z,13.75
2022-09-09T01:00:36.596Z,13.74
2022-09-09T01:01:36.636Z,13.86
2022-09-09T01:02:36.652Z,13.83
2022-09-09T01:03:36.570Z,13.71
2022-09-09T01:04:36.569Z,13.77
2022-09-09T01:05:36.551Z,13.75
2022-09-09T01:06:37.173Z,13.72
2022-09-09T01:07:36.542Z,13.77
2022-09-09T01:08:36.664Z,13.81
2022-09-09T01:09:36.532Z,13.86
2022-09-09T01:10:36.515Z,13.85
2022-09-09T01:11:36.516Z,13.83
2022-09-09T01:12:36.499Z,13.87
2022-09-09T01:13:36.495Z,13.86
2022-09-09T01:14:36.499Z,13.95
2022-09-09T01:15:36.482Z,13.96
2022-09-09T01:16:36.512Z,14.00
2022-09-09T01:17:36.460Z,14.14
2022-09-09T01:18:36.657Z,14.04
2022-09-09T01:19:36.444Z,14.14
2022-09-09T01:20:36.451Z,14.28
2022-09-09T01:21:36.433Z,14.17
2022-09-09T01:22:36.425Z,14.23
2022-09-09T01:23:36.416Z,14.25
2022-09-09T01:24:36.414Z,14.32
2022-09-09T01:25:36.405Z,14.33
2022-09-09T01:26:36.388Z,14.40
2022-09-09T01:27:36.381Z,14.40
2022-09-09T01:28:36.536Z,14.47
2022-09-09T01:29:36.374Z,14.51
2022-09-09T01:30:36.447Z,14.43
2022-09-09T01:31:36.354Z,14.48
2022-09-09T01:32:36.340Z,14.45
2022-09-09T01:33:36.344Z,14.40
2022-09-09T01:34:36.327Z,14.32
2022-09-09T01:35:36.305Z,14.35
2022-09-09T01:36:37.314Z,14.40
2022-09-09T01:37:36.303Z,14.36
2022-09-09T01:38:36.484Z,14.35
2022-09-09T01:39:36.394Z,14.37
2022-09-09T01:40:36.279Z,14.45
2022-09-09T01:41:36.271Z,14.35
2022-09-09T01:42:36.260Z,14.32
2022-09-09T01:43:36.272Z,14.29
2022-09-09T01:44:36.256Z,14.32
2022-09-09T01:45:36.296Z,14.28
2022-09-09T01:46:36.234Z,14.32
2022-09-09T01:47:36.232Z,14.17
2022-09-09T01:48:36.257Z,14.20
2022-09-09T01:49:36.211Z,14.08
2022-09-09T01:50:36.196Z,14.20
2022-09-09T01:51:36.196Z,14.17
2022-09-09T01:52:36.180Z,14.14
2022-09-09T01:53:36.170Z,14.14
2022-09-09T01:54:36.173Z,14.22
2022-09-09T01:55:37.108Z,14.20
2022-09-09T01:56:36.145Z,14.26
2022-09-09T01:57:36.146Z,14.28
2022-09-09T01:58:36.199Z,14.30
2022-09-09T01:59:36.149Z,14.33
2022-09-09T02:00:36.117Z,14.41
2022-09-09T02:01:36.173Z,14.44
2022-09-09T02:02:36.176Z,14.43
2022-09-09T02:03:36.095Z,14.50
2022-09-09T02:04:36.092Z,14.50
2022-09-09T02:05:36.080Z,14.53
2022-09-09T02:06:36.078Z,14.48
2022-09-09T02:07:36.071Z,14.59
2022-09-09T02:08:36.166Z,14.63
2022-09-09T02:09:36.050Z,14.59
2022-09-09T02:10:36.048Z,14.63
2022-09-09T02:11:36.035Z,14.65
2022-09-09T02:12:36.034Z,14.79
2022-09-09T02:13:36.690Z,14.79
2022-09-09T02:14:36.012Z,14.81
2022-09-09T02:15:36.002Z,14.92
2022-09-09T02:16:36.025Z,14.88
2022-09-09T02:17:35.989Z,14.92
2022-09-09T02:18:36.119Z,14.92
2022-09-09T02:19:35.973Z,15.00
2022-09-09T02:20:35.965Z,14.91
2022-09-09T02:21:35.956Z,15.07
2022-09-09T02:22:35.944Z,15.04
2022-09-09T02:23:35.941Z,15.02
2022-09-09T02:24:35.930Z,15.07
2022-09-09T02:25:35.931Z,15.19
2022-09-09T02:26:35.907Z,15.11
2022-09-09T02:27:35.904Z,15.09
2022-09-09T02:28:36.174Z,15.02
2022-09-09T02:29:35.892Z,15.19
2022-09-09T02:30:35.918Z,15.18
2022-09-09T02:31:35.880Z,15.22
2022-09-09T02:32:35.862Z,15.11
2022-09-09T02:33:35.861Z,15.19
2022-09-09T02:34:35.856Z,15.15
2022-09-09T02:35:35.840Z,15.18
2022-09-09T02:36:35.857Z,15.15
2022-09-09T02:37:35.832Z,15.15
2022-09-09T02:38:36.097Z,15.14
2022-09-09T02:39:35.884Z,15.11
2022-09-09T02:40:37.704Z,15.21
2022-09-09T02:41:35.792Z,15.19
2022-09-09T02:42:35.782Z,15.19
2022-09-09T02:43:35.795Z,15.15
2022-09-09T02:44:35.767Z,15.18
2022-09-09T02:45:35.809Z,15.25
2022-09-09T02:46:35.756Z,15.15
2022-09-09T02:47:35.755Z,15.22
2022-09-09T02:48:35.887Z,15.18
2022-09-09T02:49:35.730Z,15.15
2022-09-09T02:50:35.735Z,15.15
2022-09-09T02:51:35.713Z,15.10
2022-09-09T02:52:35.707Z,15.22
2022-09-09T02:53:35.701Z,15.19
2022-09-09T02:54:35.690Z,15.25
2022-09-09T02:55:35.691Z,15.27
2022-09-09T02:56:35.717Z,15.35
2022-09-09T02:57:35.663Z,15.33
2022-09-09T02:58:35.730Z,15.39
2022-09-09T02:59:35.651Z,15.40
2022-09-09T03:00:35.641Z,15.42
2022-09-09T03:01:35.679Z,15.43
2022-09-09T03:02:35.684Z,15.44
2022-09-09T03:03:35.616Z,15.33
2022-09-09T03:04:35.611Z,15.42
2022-09-09T03:05:35.612Z,15.37
2022-09-09T03:06:35.600Z,15.43
2022-09-09T03:07:35.587Z,15.39
2022-09-09T03:08:35.690Z,15.43
2022-09-09T03:09:35.573Z,15.28
2022-09-09T03:10:35.571Z,15.42
2022-09-09T03:11:35.573Z,15.33
2022-09-09T03:12:35.549Z,15.33
2022-09-09T03:13:35.545Z,15.29
2022-09-09T03:14:35.536Z,15.22
2022-09-09T03:15:35.529Z,15.19
2022-09-09T03:16:35.704Z,15.14
2022-09-09T03:17:35.521Z,15.22
2022-09-09T03:18:35.622Z,15.14
2022-09-09T03:19:35.501Z,15.09
2022-09-09T03:20:35.490Z,15.03
2022-09-09T03:21:35.483Z,15.07
2022-09-09T03:22:35.485Z,15.02
2022-09-09T03:23:35.474Z,14.99
2022-09-09T03:24:35.461Z,15.09
2022-09-09T03:25:35.458Z,15.03
2022-09-09T03:26:35.451Z,15.03
2022-09-09T03:27:35.453Z,14.94
2022-09-09T03:28:35.622Z,14.89
2022-09-09T03:29:35.424Z,14.86
2022-09-09T03:30:35.419Z,14.81
2022-09-09T03:31:35.445Z,14.88
2022-09-09T03:32:35.405Z,14.78
2022-09-09T03:33:35.390Z,14.79
2022-09-09T03:34:35.403Z,14.81
2022-09-09T03:35:35.383Z,14.78
2022-09-09T03:36:35.401Z,14.77
2022-09-09T03:37:35.363Z,14.84
2022-09-09T03:38:35.420Z,14.84
2022-09-09T03:39:35.377Z,14.92
2022-09-09T03:40:35.337Z,14.97
2022-09-09T03:41:35.323Z,15.02
2022-09-09T03:42:35.328Z,15.11
2022-09-09T03:43:35.306Z,15.10
2022-09-09T03:44:35.311Z,15.03
2022-09-09T03:45:35.370Z,15.07
2022-09-09T03:46:35.286Z,15.02
2022-09-09T03:47:35.278Z,15.11
2022-09-09T03:48:35.353Z,15.10
2022-09-09T03:49:35.265Z,15.11
2022-09-09T03:50:35.271Z,15.15
2022-09-09T03:51:35.731Z,15.15
2022-09-09T03:52:35.239Z,15.04
2022-09-09T03:53:35.236Z,15.06
2022-09-09T03:54:35.218Z,15.06
2022-09-09T03:55:35.217Z,15.03
2022-09-09T03:56:35.220Z,15.04
2022-09-09T03:57:35.196Z,15.09
2022-09-09T03:58:35.330Z,15.00
2022-09-09T03:59:35.183Z,14.89
2022-09-09T04:00:35.179Z,14.94
2022-09-09T04:01:35.247Z,14.92
2022-09-09T04:02:35.318Z,14.88
2022-09-09T04:03:35.164Z,14.89
2022-09-09T04:04:35.145Z,14.91
2022-09-09T04:05:35.132Z,14.96
2022-09-09T04:06:35.138Z,14.99
2022-09-09T04:07:35.115Z,14.88
2022-09-09T04:08:35.407Z,14.91
2022-09-09T04:09:35.105Z,14.89
2022-09-09T04:10:35.099Z,14.88
2022-09-09T04:11:35.085Z,14.89
2022-09-09T04:12:35.078Z,14.81
2022-09-09T04:13:35.077Z,14.82
2022-09-09T04:14:35.066Z,14.81
2022-09-09T04:15:35.058Z,14.78
2022-09-09T04:16:35.163Z,14.78
2022-09-09T04:17:35.033Z,14.68
2022-09-09T04:18:35.199Z,14.68
2022-09-09T04:19:35.031Z,14.68
2022-09-09T04:20:35.023Z,14.65
2022-09-09T04:21:35.004Z,14.59
2022-09-09T04:22:35.003Z,14.51
2022-09-09T04:23:34.998Z,14.62
2022-09-09T04:24:34.991Z,14.54
2022-09-09T04:25:34.970Z,14.44
2022-09-09T04:26:34.969Z,14.50
2022-09-09T04:27:34.959Z,14.53
2022-09-09T04:28:35.033Z,14.45
2022-09-09T04:29:34.947Z,14.51
2022-09-09T04:30:34.929Z,14.41
2022-09-09T04:31:34.955Z,14.48
2022-09-09T04:32:34.920Z,14.36
2022-09-09T04:33:39.425Z,14.45
2022-09-09T04:34:36.902Z,14.29
2022-09-09T04:35:34.897Z,14.37
2022-09-09T04:36:34.905Z,14.37
2022-09-09T04:37:34.879Z,14.37
2022-09-09T04:38:34.870Z,14.35
2022-09-09T04:39:34.880Z,14.26
2022-09-09T04:40:34.856Z,14.36
2022-09-09T04:41:34.860Z,14.37
2022-09-09T04:42:34.853Z,14.40
2022-09-09T04:43:34.830Z,14.44
2022-09-09T04:44:34.823Z,14.29
2022-09-09T04:45:34.902Z,14.28
2022-09-09T04:46:34.827Z,14.23
2022-09-09T04:47:34.802Z,14.26
2022-09-09T04:48:34.845Z,14.28
2022-09-09T04:49:34.788Z,14.25
2022-09-09T04:50:34.775Z,14.32
2022-09-09T04:51:34.775Z,14.29
2022-09-09T04:52:34.755Z,14.30
2022-09-09T04:53:34.747Z,14.32
2022-09-09T04:54:34.744Z,14.35
2022-09-09T04:55:34.738Z,14.37
2022-09-09T04:56:34.734Z,14.44
2022-09-09T04:57:34.712Z,14.33
2022-09-09T04:58:34.838Z,14.45
2022-09-09T04:59:34.704Z,14.44
2022-09-09T05:00:34.762Z,14.44
2022-09-09T05:01:34.696Z,14.45
2022-09-09T05:02:34.704Z,14.65
2022-09-09T05:03:34.712Z,14.69
2022-09-09T05:04:34.657Z,14.70
2022-09-09T05:05:34.650Z,14.69
2022-09-09T05:06:34.650Z,14.79
2022-09-09T05:07:34.646Z,14.84
2022-09-09T05:08:34.739Z,14.86
2022-09-09T05:09:34.651Z,14.84
2022-09-09T05:10:34.636Z,14.88
2022-09-09T05:11:34.603Z,14.81
2022-09-09T05:12:34.594Z,14.88
2022-09-09T05:13:38.332Z,14.88
2022-09-09T05:14:35.572Z,14.88
2022-09-09T05:15:34.607Z,14.91
2022-09-09T05:16:34.687Z,14.94
2022-09-09T05:17:34.549Z,14.96
2022-09-09T05:18:34.583Z,14.91
2022-09-09T05:19:35.171Z,14.97
2022-09-09T05:20:34.535Z,15.09
2022-09-09T05:21:34.530Z,15.07
2022-09-09T05:22:34.508Z,15.09
2022-09-09T05:23:34.505Z,15.14
2022-09-09T05:24:34.491Z,15.11
2022-09-09T05:25:34.500Z,15.18
2022-09-09T05:26:34.489Z,15.25
2022-09-09T05:27:34.467Z,15.15
2022-09-09T05:28:34.514Z,15.18
2022-09-09T05:29:34.486Z,15.22
2022-09-09T05:30:34.454Z,15.27
2022-09-09T05:31:34.481Z,15.28
2022-09-09T05:32:34.425Z,15.19
2022-09-09T05:33:34.423Z,15.29
2022-09-09T05:34:34.444Z,15.27
2022-09-09T05:35:34.414Z,15.27
2022-09-09T05:36:34.410Z,15.28
2022-09-09T05:37:34.392Z,15.35
2022-09-09T05:38:34.520Z,15.27
2022-09-09T05:39:35.257Z,15.36
2022-09-09T05:40:34.364Z,15.51
2022-09-09T05:41:34.366Z,15.37
2022-09-09T05:42:34.347Z,15.36
2022-09-09T05:43:34.341Z,15.35
2022-09-09T05:44:34.376Z,15.36
2022-09-09T05:45:34.338Z,15.28
2022-09-09T05:46:34.361Z,15.37
2022-09-09T05:47:34.309Z,15.28
2022-09-09T05:48:34.368Z,15.24
2022-09-09T05:49:35.303Z,15.29
2022-09-09T05:50:34.289Z,15.35
2022-09-09T05:51:34.300Z,15.36
2022-09-09T05:52:34.290Z,15.40
2022-09-09T05:53:34.260Z,15.36
2022-09-09T05:54:34.256Z,15.40
2022-09-09T05:55:34.253Z,15.39
2022-09-09T05:56:34.249Z,15.42
2022-09-09T05:57:34.230Z,15.44
2022-09-09T05:58:34.273Z,15.49
2022-09-09T05:59:34.220Z,15.62
2022-09-09T06:00:34.205Z,15.72
2022-09-09T06:01:34.266Z,15.79
2022-09-09T06:02:34.307Z,15.91
2022-09-09T06:03:34.181Z,15.88
2022-09-09T06:04:34.177Z,16.00
2022-09-09T06:05:34.167Z,15.97
2022-09-09T06:06:34.170Z,16.21
2022-09-09T06:07:34.149Z,16.08
2022-09-09T06:08:34.164Z,16.28
2022-09-09T06:09:34.165Z,16.28
2022-09-09T06:10:34.134Z,16.38
2022-09-09T06:11:34.148Z,16.51
2022-09-09T06:12:34.110Z,16.68
2022-09-09T06:13:34.107Z,16.75
2022-09-09T06:14:34.754Z,16.81
2022-09-09T06:15:34.088Z,17.08
2022-09-09T06:16:34.141Z,17.26
2022-09-09T06:17:34.085Z,17.59
2022-09-09T06:18:34.124Z,17.70
2022-09-09T06:19:34.054Z,18.01
2022-09-09T06:20:34.041Z,18.33
2022-09-09T06:21:34.036Z,18.50
2022-09-09T06:22:34.043Z,18.89
2022-09-09T06:23:34.037Z,19.19
2022-09-09T06:24:34.040Z,19.49
2022-09-09T06:25:34.010Z,19.70
2022-09-09T06:26:34.038Z,19.99
2022-09-09T06:27:33.995Z,20.22
2022-09-09T06:28:34.015Z,20.36
2022-09-09T06:29:33.967Z,20.48
2022-09-09T06:30:33.966Z,20.43
2022-09-09T06:31:34.016Z,20.47
2022-09-09T06:32:33.955Z,20.48
2022-09-09T06:33:33.949Z,20.66
2022-09-09T06:34:33.931Z,20.72
2022-09-09T06:35:33.929Z,20.69
2022-09-09T06:36:33.922Z,20.75
2022-09-09T06:37:33.935Z,20.82
2022-09-09T06:38:33.925Z,20.96
2022-09-09T06:39:33.954Z,21.06
2022-09-09T06:40:33.893Z,21.12
2022-09-09T06:41:33.881Z,21.00
2022-09-09T06:42:33.870Z,20.95
2022-09-09T06:43:33.904Z,20.90
2022-09-09T06:44:35.482Z,20.88
2022-09-09T06:45:34.862Z,21.03
2022-09-09T06:46:33.872Z,20.97
2022-09-09T06:47:33.912Z,21.07
2022-09-09T06:48:33.839Z,21.06
2022-09-09T06:49:33.848Z,20.97
2022-09-09T06:50:33.807Z,21.03
2022-09-09T06:51:33.803Z,21.05
2022-09-09T06:52:33.791Z,20.99
2022-09-09T06:53:33.789Z,20.88
2022-09-09T06:54:33.777Z,20.93
2022-09-09T06:55:33.779Z,20.96
2022-09-09T06:56:33.805Z,20.87
2022-09-09T06:57:37.261Z,20.95
2022-09-09T06:58:34.802Z,20.90
2022-09-09T06:59:33.762Z,20.90
2022-09-09T07:00:33.782Z,21.02
2022-09-09T07:01:33.783Z,21.07
2022-09-09T07:02:33.724Z,21.14
2022-09-09T07:03:33.715Z,21.35
2022-09-09T07:04:33.704Z,21.37
2022-09-09T07:05:33.707Z,21.60
2022-09-09T07:06:33.689Z,21.77
2022-09-09T07:07:33.683Z,22.07
2022-09-09T07:08:33.740Z,22.23
2022-09-09T07:09:33.683Z,22.44
2022-09-09T07:10:33.654Z,22.62
2022-09-09T07:11:33.646Z,22.69
2022-09-09T07:12:33.647Z,22.85
2022-09-09T07:13:33.631Z,22.84
2022-09-09T07:14:33.636Z,22.93
2022-09-09T07:15:33.618Z,22.90
2022-09-09T07:16:33.647Z,22.80
2022-09-09T07:17:34.201Z,22.75
2022-09-09T07:18:33.600Z,22.62
2022-09-09T07:19:33.586Z,22.63
2022-09-09T07:20:33.571Z,22.43
2022-09-09T07:21:33.598Z,22.08
2022-09-09T07:22:33.559Z,22.10
2022-09-09T07:23:36.319Z,21.95
2022-09-09T07:24:34.541Z,21.76
2022-09-09T07:25:33.529Z,21.67
2022-09-09T07:26:33.528Z,21.58
2022-09-09T07:27:33.561Z,21.66
2022-09-09T07:28:33.570Z,21.64
2022-09-09T07:29:33.505Z,21.62
2022-09-09T07:30:40.440Z,21.61
2022-09-09T07:31:33.513Z,21.54
2022-09-09T07:32:33.481Z,21.60
2022-09-09T07:33:33.535Z,21.55
2022-09-09T07:34:33.463Z,21.60
2022-09-09T07:35:33.450Z,21.57
2022-09-09T07:36:33.814Z,21.54
2022-09-09T07:37:33.433Z,21.50
2022-09-09T07:38:33.457Z,21.40
2022-09-09T07:39:33.494Z,21.37
2022-09-09T07:40:33.429Z,21.42
2022-09-09T07:41:33.412Z,21.51
2022-09-09T07:42:33.398Z,21.66
2022-09-09T07:43:33.389Z,21.76
2022-09-09T07:44:33.382Z,21.91
2022-09-09T07:45:33.372Z,22.10
2022-09-09T07:46:33.452Z,22.08
2022-09-09T07:47:33.358Z,22.13
2022-09-09T07:48:33.495Z,22.08
2022-09-09T07:49:33.335Z,22.14
2022-09-09T07:50:33.339Z,22.18
2022-09-09T07:51:33.334Z,22.23
2022-09-09T07:52:33.312Z,22.14
2022-09-09T07:53:33.369Z,22.11
2022-09-09T07:54:33.298Z,22.11
2022-09-09T07:55:33.296Z,21.80
2022-09-09T07:56:33.637Z,21.89
2022-09-09T07:57:34.270Z,21.77
2022-09-09T07:58:38.195Z,21.75
2022-09-09T07:59:35.398Z,21.67
2022-09-09T08:00:33.245Z,21.64
2022-09-09T08:01:33.329Z,21.64
2022-09-09T08:02:33.242Z,21.79
2022-09-09T08:03:33.725Z,21.85
2022-09-09T08:04:33.217Z,21.77
2022-09-09T08:05:33.208Z,21.83
2022-09-09T08:06:33.199Z,21.98
2022-09-09T08:07:33.199Z,21.99
2022-09-09T08:08:33.187Z,22.08
2022-09-09T08:09:33.187Z,22.00
2022-09-09T08:10:33.166Z,22.18
2022-09-09T08:11:38.139Z,22.08
2022-09-09T08:12:36.385Z,22.04
2022-09-09T08:13:33.212Z,22.00
2022-09-09T08:14:33.143Z,22.14
2022-09-09T08:15:33.123Z,22.08
2022-09-09T08:16:33.125Z,22.17
2022-09-09T08:17:33.120Z,22.26
2022-09-09T08:18:33.111Z,22.26
2022-09-09T08:19:33.100Z,22.39
2022-09-09T08:20:33.138Z,22.28
2022-09-09T08:21:33.083Z,22.18
2022-09-09T08:22:33.080Z,22.20
2022-09-09T08:23:33.121Z,22.10
2022-09-09T08:24:33.068Z,22.14
2022-09-09T08:25:33.054Z,22.15
2022-09-09T08:26:33.052Z,22.29
2022-09-09T08:27:33.032Z,22.50
2022-09-09T08:28:33.185Z,22.63
2022-09-09T08:29:33.018Z,22.39
2022-09-09T08:30:33.026Z,22.47
2022-09-09T08:31:33.029Z,22.57
2022-09-09T08:32:33.011Z,22.54
2022-09-09T08:33:33.026Z,22.66
2022-09-09T08:34:33.009Z,22.59
2022-09-09T08:35:33.839Z,22.60
2022-09-09T08:36:33.963Z,22.59
2022-09-09T08:37:32.950Z,22.45
2022-09-09T08:38:32.948Z,22.54
2022-09-09T08:39:32.972Z,22.50
2022-09-09T08:40:32.943Z,22.39
2022-09-09T08:41:32.928Z,22.35
2022-09-09T08:42:32.919Z,22.26
2022-09-09T08:43:32.991Z,22.25
2022-09-09T08:44:32.916Z,22.36
2022-09-09T08:45:32.888Z,22.47
2022-09-09T08:46:32.958Z,22.15
2022-09-09T08:47:34.084Z,22.15
2022-09-09T08:48:33.873Z,22.30
2022-09-09T08:49:32.869Z,22.28
2022-09-09T08:50:32.846Z,22.54
2022-09-09T08:51:32.842Z,22.53
2022-09-09T08:52:32.836Z,22.48
2022-09-09T08:53:32.851Z,22.51
2022-09-09T08:54:51.033Z,22.43
2022-09-09T08:55:34.813Z,22.29
2022-09-09T08:56:32.807Z,22.22
2022-09-09T08:57:32.798Z,22.11
2022-09-09T08:58:32.835Z,22.20
2022-09-09T08:59:32.774Z,22.32
2022-09-09T09:00:32.762Z,22.48
2022-09-09T09:01:32.828Z,22.60
2022-09-09T09:02:32.845Z,22.80
2022-09-09T09:03:32.752Z,23.00
2022-09-09T09:04:32.799Z,23.09
2022-09-09T09:05:32.727Z,23.08
2022-09-09T09:06:32.765Z,22.98
2022-09-09T09:07:33.145Z,22.81
2022-09-09T09:08:33.708Z,22.84
2022-09-09T09:09:32.700Z,22.93
2022-09-09T09:10:42.495Z,23.02
2022-09-09T09:11:34.700Z,22.96
2022-09-09T09:12:32.684Z,23.09
2022-09-09T09:13:32.687Z,23.02
2022-09-09T09:14:32.660Z,22.83
2022-09-09T09:15:32.862Z,22.48
2022-09-09T09:16:32.682Z,22.44
2022-09-09T09:17:32.631Z,22.35
2022-09-09T09:18:32.685Z,22.26
2022-09-09T09:19:32.615Z,22.43
2022-09-09T09:20:32.608Z,22.33
2022-09-09T09:21:32.608Z,22.30
2022-09-09T09:22:32.614Z,22.22
2022-09-09T09:23:32.588Z,22.26
2022-09-09T09:24:32.585Z,22.30
2022-09-09T09:25:32.575Z,22.32
2022-09-09T09:26:32.568Z,22.28
2022-09-09T09:27:32.550Z,22.26
2022-09-09T09:28:32.584Z,22.41
2022-09-09T09:29:32.537Z,22.66
2022-09-09T09:30:32.535Z,22.78
2022-09-09T09:31:32.560Z,22.78
2022-09-09T09:32:32.518Z,22.96
2022-09-09T09:33:33.269Z,23.09
2022-09-09T09:34:32.496Z,23.41
2022-09-09T09:35:35.091Z,23.41
2022-09-09T09:36:32.489Z,23.51
2022-09-09T09:37:33.048Z,23.66
2022-09-09T09:40:04.091Z,23.77
2022-09-09T09:40:34.477Z,23.78
2022-09-09T09:41:32.450Z,23.91
2022-09-09T09:42:32.485Z,23.88
2022-09-09T09:43:32.508Z,23.69
2022-09-09T09:44:32.506Z,23.59
2022-09-09T09:45:32.467Z,23.69
2022-09-09T09:46:32.456Z,23.69
2022-09-09T09:47:32.402Z,23.76
2022-09-09T09:48:32.417Z,23.76
2022-09-09T09:49:32.386Z,23.87
2022-09-09T09:50:32.436Z,23.84
2022-09-09T09:51:32.386Z,23.80
2022-09-09T09:52:32.385Z,23.74
2022-09-09T09:53:32.404Z,23.84
2022-09-09T09:54:32.355Z,23.74
2022-09-09T09:55:32.348Z,23.73
2022-09-09T09:56:32.344Z,23.76
2022-09-09T09:57:32.388Z,23.93
2022-09-09T09:58:32.986Z,24.14
2022-09-09T09:59:40.561Z,24.23
2022-09-09T10:00:34.310Z,24.26
2022-09-09T10:01:32.392Z,24.30
2022-09-09T10:02:32.283Z,24.10
2022-09-09T10:03:32.281Z,23.92
2022-09-09T10:04:32.300Z,23.77
2022-09-09T10:05:36.108Z,23.81
2022-09-09T10:06:33.260Z,23.73
2022-09-09T10:07:32.245Z,23.55
2022-09-09T10:08:32.246Z,23.68
2022-09-09T10:09:32.239Z,23.83
2022-09-09T10:10:32.231Z,24.03
2022-09-09T10:11:32.236Z,24.05
2022-09-09T10:12:32.209Z,24.11
2022-09-09T10:13:32.204Z,24.14
2022-09-09T10:14:32.777Z,24.17
2022-09-09T10:15:32.210Z,24.18
2022-09-09T10:16:32.196Z,24.18
2022-09-09T10:17:32.170Z,24.03
2022-09-09T10:18:32.189Z,23.86
2022-09-09T10:19:32.786Z,23.84
2022-09-09T10:20:32.151Z,23.73
2022-09-09T10:21:33.355Z,23.63
2022-09-09T10:22:33.147Z,23.55
2022-09-09T10:23:32.133Z,23.61
2022-09-09T10:24:32.134Z,23.76
2022-09-09T10:25:32.634Z,23.84
2022-09-09T10:26:32.124Z,23.98
2022-09-09T10:27:32.148Z,23.95
2022-09-09T10:28:32.090Z,24.05
2022-09-09T10:29:32.133Z,24.10
2022-09-09T10:30:32.075Z,24.21
2022-09-09T10:31:32.061Z,24.35
2022-09-09T10:32:32.053Z,24.30
2022-09-09T10:33:32.854Z,24.42
2022-09-09T10:34:32.039Z,24.30
2022-09-09T10:35:32.056Z,24.36
2022-09-09T10:36:32.031Z,24.35
2022-09-09T10:37:32.132Z,24.32
2022-09-09T10:38:32.033Z,24.30
2022-09-09T10:39:32.053Z,24.35
2022-09-09T10:40:32.783Z,24.30
2022-09-09T10:41:31.980Z,24.36
2022-09-09T10:42:31.974Z,24.32
2022-09-09T10:43:31.970Z,24.30
2022-09-09T10:44:31.955Z,24.35
2022-09-09T10:45:31.954Z,24.32
2022-09-09T10:46:32.022Z,24.33
2022-09-09T10:47:31.930Z,24.36
2022-09-09T10:48:31.919Z,24.26
2022-09-09T10:49:31.933Z,24.28
2022-09-09T10:51:00.006Z,24.23
2022-09-09T10:51:33.908Z,24.10
2022-09-09T10:52:31.890Z,24.05
2022-09-09T10:53:31.886Z,23.96
2022-09-09T10:54:31.898Z,23.88
2022-09-09T10:55:32.789Z,23.84
2022-09-09T10:56:31.904Z,23.81
2022-09-09T10:57:31.856Z,23.78
2022-09-09T10:58:31.855Z,23.74
2022-09-09T10:59:31.862Z,23.66
2022-09-09T11:00:31.832Z,23.63
2022-09-09T11:01:31.886Z,23.51
2022-09-09T11:02:31.815Z,23.58
2022-09-09T11:03:31.917Z,23.50
2022-09-09T11:04:31.804Z,23.28
2022-09-09T11:05:31.797Z,23.27
2022-09-09T11:06:31.841Z,23.36
2022-09-09T11:07:31.776Z,23.40
2022-09-09T11:08:31.777Z,23.41
2022-09-09T11:09:31.765Z,23.34
2022-09-09T11:10:31.759Z,23.17
2022-09-09T11:11:31.937Z,23.15
2022-09-09T11:12:31.734Z,23.09
2022-09-09T11:13:31.738Z,22.90
2022-09-09T11:14:35.382Z,22.90
2022-09-09T11:15:33.716Z,22.70
2022-09-09T11:16:31.750Z,22.81
2022-09-09T11:17:31.710Z,22.66
2022-09-09T11:18:31.687Z,22.66
2022-09-09T11:19:32.707Z,22.66
2022-09-09T11:20:31.690Z,22.76
2022-09-09T11:21:31.673Z,22.85
2022-09-09T11:22:31.676Z,22.96
2022-09-09T11:23:31.697Z,22.91
2022-09-09T11:24:31.674Z,22.96
2022-09-09T11:25:31.638Z,23.08
2022-09-09T11:26:31.703Z,23.10
2022-09-09T11:27:31.625Z,23.23
2022-09-09T11:28:31.629Z,23.21
2022-09-09T11:29:32.298Z,23.08
2022-09-09T11:30:55.060Z,23.18
2022-09-09T11:31:33.660Z,23.21
2022-09-09T11:32:31.623Z,23.10
2022-09-09T11:33:31.580Z,23.06
2022-09-09T11:34:31.635Z,22.99
2022-09-09T11:35:32.390Z,23.09
2022-09-09T11:36:31.567Z,23.23
2022-09-09T11:37:31.565Z,23.08
2022-09-09T11:38:31.600Z,22.99
2022-09-09T11:39:31.697Z,23.02
2022-09-09T11:40:31.536Z,23.12
2022-09-09T11:41:31.523Z,23.24
2022-09-09T11:42:31.515Z,23.44
2022-09-09T11:43:31.500Z,23.55
2022-09-09T11:44:31.633Z,23.47
2022-09-09T11:45:31.519Z,23.43
2022-09-09T11:46:31.539Z,23.34
2022-09-09T11:47:32.398Z,23.17
2022-09-09T11:48:31.557Z,23.18
2022-09-09T11:49:31.464Z,23.20
2022-09-09T11:50:31.490Z,23.24
2022-09-09T11:51:31.474Z,23.25
2022-09-09T11:52:31.438Z,23.21
2022-09-09T11:53:31.422Z,23.10
2022-09-09T11:54:32.428Z,23.09
2022-09-09T11:55:32.312Z,23.05
2022-09-09T11:56:31.423Z,23.08
2022-09-09T11:57:31.412Z,23.06
2022-09-09T11:58:31.397Z,23.25
2022-09-09T11:59:31.387Z,23.06
2022-09-09T12:00:31.379Z,23.10
2022-09-09T12:01:31.381Z,23.03
2022-09-09T12:02:31.411Z,22.93
2022-09-09T12:03:31.356Z,22.99
2022-09-09T12:04:31.402Z,23.12
2022-09-09T12:05:31.346Z,23.12
2022-09-09T12:06:31.354Z,23.10
2022-09-09T12:07:31.339Z,23.17
2022-09-09T12:08:31.318Z,23.15
2022-09-09T12:09:31.311Z,23.31
2022-09-09T12:10:31.302Z,23.12
2022-09-09T12:11:31.313Z,23.10
2022-09-09T12:12:31.295Z,23.12
2022-09-09T12:13:31.278Z,23.02
2022-09-09T12:14:31.819Z,22.84
2022-09-09T12:15:31.274Z,22.98
2022-09-09T12:16:31.344Z,23.05
2022-09-09T12:17:31.258Z,23.13
2022-09-09T12:18:31.250Z,23.10
2022-09-09T12:19:31.232Z,22.99
2022-09-09T12:20:31.224Z,22.90
2022-09-09T12:21:31.219Z,23.02
2022-09-09T12:22:31.213Z,23.13
2022-09-09T12:23:31.223Z,23.20
2022-09-09T12:24:31.194Z,23.18
2022-09-09T12:25:31.191Z,23.03
2022-09-09T12:26:31.820Z,22.99
2022-09-09T12:27:31.179Z,22.96
2022-09-09T12:28:31.182Z,22.94
2022-09-09T12:29:31.170Z,22.88
2022-09-09T12:30:31.250Z,23.03
2022-09-09T12:31:31.146Z,23.12
2022-09-09T12:32:31.144Z,23.10
2022-09-09T12:33:31.141Z,23.18
2022-09-09T12:34:31.127Z,23.21
2022-09-09T12:35:31.110Z,23.18
2022-09-09T12:36:31.108Z,23.24
2022-09-09T12:37:31.098Z,23.25
2022-09-09T12:38:31.099Z,23.27
2022-09-09T12:39:31.144Z,22.99
2022-09-09T12:40:31.106Z,22.70
2022-09-09T12:41:31.077Z,22.70
2022-09-09T12:42:31.906Z,22.75
2022-09-09T12:43:31.133Z,22.90
2022-09-09T12:44:31.045Z,23.12
2022-09-09T12:45:31.042Z,23.23
2022-09-09T12:46:31.101Z,23.18
2022-09-09T12:47:31.540Z,23.27
2022-09-09T12:48:32.015Z,23.31
2022-09-09T12:49:31.007Z,23.27
2022-09-09T12:50:31.007Z,23.31
2022-09-09T12:51:30.987Z,23.43
2022-09-09T12:52:30.994Z,23.44
2022-09-09T12:53:31.012Z,23.39
2022-09-09T12:54:30.970Z,23.58